Time;durP1;ratioP1;P1;durP2;ratioP2;P2;SDS_P1;SDS_P2;PMS_P1;PMS_P2;Temp;Humidity;BMP_temperature;BMP_pressure;BME280_temperature;BME280_humidity;BME280_pressure;Samples;Min_cycle;Max_cycle;Signal;HPM_P1;HPM_P2
2023/03/04 00:01:00;;;;;;;24.52;2.42;;;6.90;72.10;;;;;;9177572;19;20014;-63
2023/03/04 00:04:04;;;;;;;;;;;7.00;72.20;;;;;;9180636;19;20471;-62
2023/03/04 00:07:11;;;;;;;20.63;3.13;;;7.00;72.10;;;;;;9181884;19;19922;-62
2023/03/04 00:10:17;;;;;;;19.10;2.13;;;7.00;72.10;;;;;;9182466;19;20017;-62
2023/03/04 00:13:24;;;;;;;21.20;2.83;;;7.00;72.10;;;;;;9177093;19;20025;-62
2023/03/04 00:16:28;;;;;;;16.17;3.42;;;7.00;72.20;;;;;;9175520;19;20033;-62
2023/03/04 00:19:34;;;;;;;17.77;2.97;;;7.00;72.20;;;;;;9179296;19;20070;-62
2023/03/04 00:22:38;;;;;;;;;;;7.00;72.20;;;;;;9183085;19;20018;-62
2023/03/04 00:25:46;;;;;;;24.08;2.95;;;7.00;72.20;;;;;;9180662;19;19923;-62
2023/03/04 00:28:50;;;;;;;9.75;1.95;;;7.00;72.20;;;;;;9178604;19;20048;-62
2023/03/04 00:31:56;;;;;;;17.85;3.78;;;7.00;72.20;;;;;;9179390;19;20022;-62
2023/03/04 00:35:00;;;;;;;15.32;2.80;;;7.00;72.20;;;;;;9177314;19;20026;-62
2023/03/04 00:38:07;;;;;;;22.88;3.65;;;7.00;72.20;;;;;;9181573;19;20025;-62
2023/03/04 00:41:14;;;;;;;19.05;3.08;;;7.00;72.20;;;;;;9179901;19;20070;-63
2023/03/04 00:44:20;;;;;;;14.70;2.22;;;7.00;72.20;;;;;;9180433;19;20475;-63
2023/03/04 00:47:23;;;;;;;;;;;7.00;72.30;;;;;;9183206;19;20025;-62
2023/03/04 00:50:30;;;;;;;16.52;2.92;;;7.00;72.30;;;;;;9180975;19;19937;-62
2023/03/04 00:53:34;;;;;;;19.75;3.00;;;7.00;72.20;;;;;;9181580;19;20033;-63
2023/03/04 00:56:41;;;;;;;21.33;2.03;;;7.00;72.30;;;;;;9178339;19;20015;-62
2023/03/04 00:59:45;;;;;;;15.90;2.72;;;7.00;72.30;;;;;;9180126;19;20014;-63
2023/03/04 01:02:52;;;;;;;14.70;2.95;;;7.00;72.30;;;;;;9179336;19;20007;-63
2023/03/04 01:05:56;;;;;;;19.50;2.53;;;6.90;72.30;;;;;;9179390;19;20425;-62
2023/03/04 01:09:01;;;;;;;17.48;2.55;;;6.90;72.30;;;;;;9176697;19;20015;-65
2023/03/04 01:12:09;;;;;;;15.10;2.00;;;6.90;72.40;;;;;;9180999;19;20031;-63
2023/03/04 01:15:15;;;;;;;10.35;1.70;;;7.00;72.40;;;;;;9177064;19;20017;-62
2023/03/04 01:18:19;;;;;;;22.35;2.20;;;6.90;72.30;;;;;;9168329;19;20454;-62
2023/03/04 01:21:26;;;;;;;15.90;2.10;;;7.00;72.40;;;;;;9179200;19;20033;-63
2023/03/04 01:24:32;;;;;;;12.07;2.00;;;6.90;72.30;;;;;;9178254;19;20023;-62
2023/03/04 01:27:40;;;;;;;11.40;2.30;;;6.90;72.30;;;;;;9180691;19;20022;-62
2023/03/04 01:30:44;;;;;;;22.60;3.40;;;6.90;72.40;;;;;;9180854;19;20025;-62
2023/03/04 01:33:50;;;;;;;11.77;1.60;;;6.90;72.40;;;;;;9179939;19;20019;-63
2023/03/04 01:36:56;;;;;;;16.90;2.03;;;6.90;72.40;;;;;;9180134;19;20043;-63
2023/03/04 01:40:04;;;;;;;12.88;2.38;;;6.90;72.40;;;;;;9177395;19;20051;-62
2023/03/04 01:43:16;;;;;;;21.17;2.80;;;6.90;72.40;;;;;;9180136;19;20017;-62
2023/03/04 01:46:22;;;;;;;11.10;2.47;;;6.90;72.40;;;;;;9180813;19;20018;-62
2023/03/04 01:49:26;;;;;;;19.50;2.10;;;6.90;72.40;;;;;;9178966;19;20365;-62
2023/03/04 01:52:32;;;;;;;13.32;2.22;;;6.90;72.40;;;;;;9178903;19;20018;-63
2023/03/04 01:55:36;;;;;;;12.73;2.17;;;6.90;72.40;;;;;;9177967;19;20037;-63
2023/03/04 01:58:44;;;;;;;23.27;2.92;;;6.90;72.40;;;;;;9179116;19;20356;-62
2023/03/04 02:01:50;;;;;;;28.70;2.60;;;6.90;72.40;;;;;;9177752;19;20010;-62
2023/03/04 02:04:56;;;;;;;14.90;1.60;;;6.90;72.40;;;;;;9179268;19;20014;-62
2023/03/04 02:08:01;;;;;;;20.67;1.80;;;6.90;72.40;;;;;;9178253;19;20014;-63
2023/03/04 02:11:07;;;;;;;15.07;2.20;;;6.90;72.40;;;;;;9177433;19;20022;-64
2023/03/04 02:14:13;;;;;;;;;;;6.90;72.40;;;;;;9179485;19;20106;-62
2023/03/04 02:17:25;;;;;;;17.02;2.45;;;6.90;72.40;;;;;;9172952;19;19918;-63
2023/03/04 02:20:43;;;;;;;9.48;2.38;;;6.90;72.40;;;;;;9178758;19;20486;-63
2023/03/04 02:23:57;;;;;;;14.07;3.10;;;6.90;72.40;;;;;;9178568;19;20014;-62
2023/03/04 02:27:03;;;;;;;12.57;1.92;;;6.80;72.30;;;;;;9178797;19;20078;-63
2023/03/04 02:30:13;;;;;;;11.65;1.83;;;6.80;72.30;;;;;;9177067;19;20014;-63
2023/03/04 02:33:19;;;;;;;13.60;1.70;;;6.80;72.30;;;;;;9177633;19;20011;-63
2023/03/04 02:36:26;;;;;;;16.30;2.67;;;6.80;72.30;;;;;;9173652;19;20011;-62
2023/03/04 02:39:34;;;;;;;14.68;1.80;;;6.80;72.30;;;;;;9176230;19;20487;-63
2023/03/04 02:42:45;;;;;;;10.43;1.73;;;6.90;72.40;;;;;;9176472;19;20017;-62
2023/03/04 02:45:51;;;;;;;14.65;2.42;;;6.80;72.30;;;;;;9178120;19;20077;-62
2023/03/04 02:48:57;;;;;;;8.98;1.83;;;6.80;72.30;;;;;;9177244;19;20026;-62
2023/03/04 02:52:02;;;;;;;;;;;6.80;72.30;;;;;;9178506;19;20035;-62
2023/03/04 02:55:09;;;;;;;15.10;2.50;;;6.80;72.40;;;;;;9174810;19;19929;-62
2023/03/04 02:58:16;;;;;;;12.45;1.83;;;6.90;72.30;;;;;;9177325;19;20081;-62
2023/03/04 03:01:22;;;;;;;11.57;1.85;;;6.80;72.30;;;;;;9177655;19;20023;-63
2023/03/04 03:04:27;;;;;;;14.52;1.80;;;6.80;72.30;;;;;;9177547;19;20022;-63
2023/03/04 03:07:33;;;;;;;18.67;2.53;;;6.90;72.40;;;;;;9174987;19;20014;-63
2023/03/04 03:10:38;;;;;;;14.82;2.53;;;6.90;72.40;;;;;;9175539;19;20021;-63
2023/03/04 03:13:47;;;;;;;19.85;2.00;;;6.90;72.40;;;;;;9175061;19;20022;-62
2023/03/04 03:16:51;;;;;;;12.60;1.60;;;6.80;72.30;;;;;;9166142;19;20419;-63
2023/03/04 03:19:58;;;;;;;19.85;1.90;;;6.80;72.30;;;;;;9174920;19;20014;-62
2023/03/04 03:23:02;;;;;;;12.70;3.33;;;6.90;72.40;;;;;;9175482;19;20026;-63
2023/03/04 03:26:09;;;;;;;25.15;3.00;;;6.80;72.30;;;;;;9184083;19;20022;-63
2023/03/04 03:29:15;;;;;;;18.10;2.67;;;6.90;72.40;;;;;;9185060;19;20015;-62
2023/03/04 03:32:21;;;;;;;19.20;2.92;;;6.90;72.40;;;;;;9183410;19;20010;-62
2023/03/04 03:35:28;;;;;;;12.55;1.98;;;6.90;72.40;;;;;;9181787;19;20006;-62
2023/03/04 03:38:35;;;;;;;10.40;1.52;;;6.90;72.50;;;;;;9182291;19;20476;-63
2023/03/04 03:41:39;;;;;;;11.93;1.55;;;6.80;72.40;;;;;;9184162;19;20018;-62
2023/03/04 03:44:49;;;;;;;18.77;3.28;;;6.80;72.40;;;;;;9184203;19;20017;-62
2023/03/04 03:47:53;;;;;;;11.43;1.83;;;6.80;72.40;;;;;;9183672;19;20037;-62
2023/03/04 03:50:59;;;;;;;20.98;2.40;;;6.90;72.50;;;;;;9183744;19;20007;-63
2023/03/04 03:54:03;;;;;;;18.15;2.53;;;6.90;72.50;;;;;;9184023;19;20015;-64
2023/03/04 03:57:09;;;;;;;12.95;1.83;;;6.90;72.50;;;;;;9180919;19;20019;-62
2023/03/04 04:00:16;;;;;;;;;;;6.80;72.40;;;;;;9182023;19;20023;-62
2023/03/04 04:03:22;;;;;;;14.35;2.88;;;6.80;72.40;;;;;;9183167;19;19922;-63
2023/03/04 04:06:26;;;;;;;13.23;1.92;;;6.80;72.40;;;;;;9182900;19;20014;-63
2023/03/04 04:09:32;;;;;;;15.07;1.88;;;6.80;72.40;;;;;;9181186;19;20025;-63
2023/03/04 04:12:36;;;;;;;;;;;6.80;72.50;;;;;;9184099;19;20479;-63
2023/03/04 04:15:44;;;;;;;14.80;2.08;;;6.80;72.50;;;;;;9179206;19;19918;-62
2023/03/04 04:18:48;;;;;;;16.08;2.00;;;6.80;72.40;;;;;;9177683;19;20012;-63
2023/03/04 04:21:54;;;;;;;12.50;1.52;;;6.80;72.50;;;;;;9182894;19;20011;-63
2023/03/04 04:24:58;;;;;;;11.43;2.15;;;6.80;72.60;;;;;;9182663;19;20031;-62
2023/03/04 04:28:04;;;;;;;15.90;1.77;;;6.80;72.60;;;;;;9180645;19;20029;-63
2023/03/04 04:31:11;;;;;;;13.88;1.85;;;6.80;72.60;;;;;;9182731;19;20018;-62
2023/03/04 04:34:17;;;;;;;11.52;2.22;;;6.80;72.70;;;;;;9181379;19;20014;-62
2023/03/04 04:37:21;;;;;;;;;;;6.80;73.30;;;;;;9184047;19;20045;-66
2023/03/04 04:40:27;;;;;;;17.63;2.17;;;6.80;72.70;;;;;;9182350;19;19933;-62
2023/03/04 04:43:31;;;;;;;13.13;2.85;;;6.80;72.70;;;;;;9181765;19;20021;-62
2023/03/04 04:46:39;;;;;;;5.82;1.30;;;6.80;72.70;;;;;;9182880;19;20072;-62
2023/03/04 04:49:43;;;;;;;8.55;1.60;;;6.80;72.70;;;;;;9182830;19;20011;-62
2023/03/04 04:52:49;;;;;;;12.02;1.67;;;6.80;72.80;;;;;;9182344;19;20356;-62
2023/03/04 04:55:53;;;;;;;11.07;2.10;;;6.80;72.80;;;;;;9180265;19;20018;-62
2023/03/04 04:59:01;;;;;;;10.88;1.50;;;6.80;72.80;;;;;;9180689;19;20018;-62
2023/03/04 05:02:07;;;;;;;8.00;1.35;;;6.80;72.80;;;;;;9182044;19;20367;-64
2023/03/04 05:05:13;;;;;;;16.50;2.05;;;6.80;72.80;;;;;;9179891;19;20022;-63
2023/03/04 05:08:17;;;;;;;;;;;6.80;72.80;;;;;;9179810;19;20053;-62
2023/03/04 05:11:24;;;;;;;13.30;2.28;;;6.80;72.80;;;;;;9176783;19;19921;-63
2023/03/04 05:14:28;;;;;;;12.30;1.75;;;6.80;72.80;;;;;;9180786;19;20029;-63
2023/03/04 05:17:36;;;;;;;15.50;2.65;;;6.70;72.80;;;;;;9174392;19;20018;-62
2023/03/04 05:20:40;;;;;;;9.80;1.80;;;6.70;72.80;;;;;;9181350;19;20019;-62
2023/03/04 05:23:46;;;;;;;14.05;2.47;;;6.80;72.90;;;;;;9180273;19;20010;-63
2023/03/04 05:26:50;;;;;;;18.13;2.08;;;6.80;72.90;;;;;;9180957;19;20351;-63
2023/03/04 05:30:00;;;;;;;7.03;1.60;;;6.80;72.90;;;;;;9180802;19;20014;-63
2023/03/04 05:33:07;;;;;;;10.18;1.63;;;6.80;73.00;;;;;;9180892;19;20014;-63
2023/03/04 05:36:13;;;;;;;10.23;1.55;;;6.80;73.00;;;;;;9176727;19;20033;-62
2023/03/04 05:39:17;;;;;;;7.00;1.40;;;6.80;73.00;;;;;;9180312;19;20010;-63
2023/03/04 05:42:24;;;;;;;20.30;2.00;;;6.70;72.90;;;;;;9180381;19;20019;-63
2023/03/04 05:45:28;;;;;;;10.38;1.45;;;6.80;73.00;;;;;;9179693;19;20015;-63
2023/03/04 05:48:36;;;;;;;9.52;1.40;;;6.80;73.10;;;;;;9179516;19;20471;-63
2023/03/04 05:51:41;;;;;;;12.48;1.77;;;6.80;73.10;;;;;;9178541;19;20372;-63
2023/03/04 05:54:47;;;;;;;14.75;1.58;;;6.70;73.00;;;;;;9179852;19;20014;-63
2023/03/04 05:57:50;;;;;;;;;;;6.70;73.00;;;;;;9178817;19;20018;-63
2023/03/04 06:01:00;;;;;;;21.02;1.73;;;6.70;73.00;;;;;;9173725;19;19915;-63
2023/03/04 06:04:07;;;;;;;5.72;1.08;;;6.70;72.90;;;;;;9173213;19;20093;-63
2023/03/04 06:07:13;;;;;;;10.73;1.92;;;6.80;73.00;;;;;;9165844;19;20011;-63
2023/03/04 06:10:18;;;;;;;;;;;6.70;73.00;;;;;;9173845;19;20018;-63
2023/03/04 06:13:24;;;;;;;11.70;1.30;;;6.70;73.00;;;;;;9177265;19;19919;-63
2023/03/04 06:16:28;;;;;;;12.50;2.05;;;6.70;73.00;;;;;;9165520;19;20022;-63
2023/03/04 06:19:36;;;;;;;15.25;1.90;;;6.70;73.10;;;;;;9166668;19;20002;-63
2023/03/04 06:22:40;;;;;;;11.35;1.60;;;6.70;73.20;;;;;;9166536;19;20006;-63
2023/03/04 06:25:47;;;;;;;12.48;1.65;;;6.70;73.20;;;;;;9168130;19;20476;-62
2023/03/04 06:28:54;;;;;;;14.70;1.85;;;6.70;73.30;;;;;;9165125;19;20026;-62
2023/03/04 06:32:00;;;;;;;13.25;1.52;;;6.70;73.30;;;;;;9167938;19;20011;-63
2023/03/04 06:35:07;;;;;;;15.18;2.15;;;6.70;73.40;;;;;;9177237;19;20018;-63
2023/03/04 06:38:13;;;;;;;17.10;3.53;;;6.70;73.40;;;;;;9178669;19;20018;-62
2023/03/04 06:41:18;;;;;;;15.77;3.03;;;6.70;73.50;;;;;;9176589;19;20014;-63
2023/03/04 06:44:24;;;;;;;16.95;2.60;;;6.60;73.50;;;;;;9176709;19;20022;-63
2023/03/04 06:47:29;;;;;;;18.33;2.65;;;6.70;73.60;;;;;;9178589;19;20022;-63
2023/03/04 06:50:37;;;;;;;12.30;3.03;;;6.60;73.70;;;;;;9177940;19;20014;-63
2023/03/04 06:53:42;;;;;;;12.20;1.83;;;6.60;73.70;;;;;;9176297;19;20019;-62
2023/03/04 06:56:48;;;;;;;11.48;1.95;;;6.60;73.70;;;;;;9175862;19;20114;-63
2023/03/04 06:59:52;;;;;;;13.98;3.53;;;6.60;73.80;;;;;;9177635;19;20010;-62
2023/03/04 07:02:59;;;;;;;21.58;2.55;;;6.70;73.90;;;;;;9174740;19;20011;-63
2023/03/04 07:06:06;;;;;;;11.05;1.40;;;6.70;73.90;;;;;;9175733;19;20014;-62
2023/03/04 07:09:12;;;;;;;12.77;1.83;;;6.60;73.90;;;;;;9172180;19;20527;-62
2023/03/04 07:12:17;;;;;;;10.25;1.90;;;6.70;74.00;;;;;;9176722;19;20018;-63
2023/03/04 07:15:23;;;;;;;14.30;1.90;;;6.60;74.00;;;;;;9175791;19;20101;-63
2023/03/04 07:18:27;;;;;;;12.82;2.47;;;6.60;74.10;;;;;;9169711;19;20479;-63
2023/03/04 07:21:36;;;;;;;10.07;1.83;;;6.70;74.10;;;;;;9175283;19;20566;-63
2023/03/04 07:24:40;;;;;;;9.80;1.77;;;6.70;74.20;;;;;;9176232;19;20014;-62
2023/03/04 07:27:46;;;;;;;12.57;1.88;;;6.70;74.20;;;;;;9173252;19;20030;-62
2023/03/04 07:30:50;;;;;;;;;;;6.70;74.30;;;;;;9178452;19;20015;-62
2023/03/04 07:33:58;;;;;;;14.65;1.58;;;6.70;75.00;;;;;;9176134;19;19921;-63
2023/03/04 07:37:04;;;;;;;13.65;2.25;;;6.60;74.20;;;;;;9173040;19;20018;-62
2023/03/04 07:40:12;;;;;;;13.75;2.78;;;6.70;74.30;;;;;;9176185;19;20022;-62
2023/03/04 07:43:15;;;;;;;11.82;2.60;;;6.70;74.40;;;;;;9175479;19;20042;-62
2023/03/04 07:46:22;;;;;;;6.07;2.25;;;6.70;74.50;;;;;;9176405;19;20015;-62
2023/03/04 07:49:26;;;;;;;16.40;2.40;;;6.70;74.50;;;;;;9173938;19;20018;-62
2023/03/04 07:52:34;;;;;;;9.25;1.77;;;6.70;74.60;;;;;;9175493;19;20010;-62
2023/03/04 07:55:38;;;;;;;5.80;2.00;;;6.70;74.70;;;;;;9173920;19;20586;-61
2023/03/04 07:58:44;;;;;;;9.57;1.85;;;6.70;74.70;;;;;;9173835;19;20019;-61
2023/03/04 08:01:49;;;;;;;7.97;2.15;;;6.80;74.90;;;;;;9174550;19;20086;-62
2023/03/04 08:04:55;;;;;;;12.20;2.70;;;6.80;75.00;;;;;;9174359;19;20018;-61
2023/03/04 08:08:01;;;;;;;16.50;2.35;;;6.80;75.00;;;;;;9172130;19;20375;-62
2023/03/04 08:11:09;;;;;;;7.72;2.17;;;6.80;75.10;;;;;;9181709;19;20014;-62
2023/03/04 08:14:13;;;;;;;5.68;2.22;;;6.90;75.10;;;;;;9182443;19;20026;-62
2023/03/04 08:17:20;;;;;;;8.93;2.83;;;6.90;75.20;;;;;;9174507;19;20015;-62
2023/03/04 08:20:24;;;;;;;9.88;2.58;;;6.90;75.20;;;;;;9183049;19;20034;-62
2023/03/04 08:23:32;;;;;;;13.90;2.30;;;6.90;75.20;;;;;;9181910;19;20014;-62
2023/03/04 08:26:42;;;;;;;9.07;1.98;;;7.00;75.40;;;;;;9181317;19;20082;-62
2023/03/04 08:29:48;;;;;;;7.82;2.28;;;7.00;75.40;;;;;;9179250;19;20007;-61
2023/03/04 08:32:54;;;;;;;;;;;7.00;75.40;;;;;;9182356;19;20028;-61
2023/03/04 08:36:00;;;;;;;5.88;2.30;;;7.10;75.50;;;;;;9179115;19;19930;-61
2023/03/04 08:39:07;;;;;;;11.13;3.05;;;7.10;75.40;;;;;;9173977;19;20017;-62
2023/03/04 08:42:13;;;;;;;11.57;2.88;;;7.10;76.10;;;;;;9179268;19;20022;-63
2023/03/04 08:45:17;;;;;;;9.18;2.67;;;7.20;75.60;;;;;;9179448;19;20015;-62
2023/03/04 08:48:23;;;;;;;29.35;11.35;;;7.20;75.70;;;;;;9179089;19;20021;-63
2023/03/04 08:51:28;;;;;;;9.77;3.42;;;7.20;75.80;;;;;;9177716;19;20014;-62
2023/03/04 08:54:36;;;;;;;13.63;2.72;;;7.30;75.90;;;;;;9172529;19;20632;-62
2023/03/04 08:57:40;;;;;;;14.77;2.08;;;7.30;76.00;;;;;;9173044;19;20022;-62
2023/03/04 09:00:50;;;;;;;11.25;2.70;;;7.40;76.10;;;;;;9171023;19;20022;-62
2023/03/04 09:03:54;;;;;;;17.38;6.10;;;7.50;76.10;;;;;;9174266;19;20047;-62
2023/03/04 09:07:00;;;;;;;19.02;4.53;;;7.60;76.20;;;;;;9173384;19;20498;-62
2023/03/04 09:10:06;;;;;;;;;;;7.60;76.20;;;;;;9176892;19;20078;-62
2023/03/04 09:13:14;;;;;;;5.35;2.30;;;7.70;76.20;;;;;;9178130;19;20336;-62
2023/03/04 09:16:19;;;;;;;7.43;2.33;;;7.80;76.00;;;;;;9179049;19;20017;-62
2023/03/04 09:19:26;;;;;;;6.50;2.42;;;7.80;76.10;;;;;;9175698;19;20022;-62
2023/03/04 09:22:30;;;;;;;4.00;1.67;;;7.90;76.10;;;;;;9178280;19;20476;-62
2023/03/04 09:25:39;;;;;;;4.85;1.77;;;7.90;76.20;;;;;;9177299;19;20022;-61
2023/03/04 09:28:43;;;;;;;8.88;1.90;;;7.90;76.20;;;;;;9178564;19;20927;-61
2023/03/04 09:31:49;;;;;;;7.47;1.30;;;8.00;76.20;;;;;;9177922;19;20376;-62
2023/03/04 09:34:52;;;;;;;;;;;8.00;76.20;;;;;;9180249;19;20014;-62
2023/03/04 09:37:59;;;;;;;3.85;1.50;;;8.00;76.20;;;;;;9174882;19;19918;-62
2023/03/04 09:41:08;;;;;;;7.20;1.80;;;8.00;76.10;;;;;;9175994;19;20841;-62
2023/03/04 09:44:22;;;;;;;6.32;1.45;;;8.10;76.30;;;;;;9179152;19;20479;-62
2023/03/04 09:47:27;;;;;;;7.55;1.20;;;8.10;76.40;;;;;;9179561;19;20358;-63
2023/03/04 09:50:37;;;;;;;7.43;1.90;;;8.10;76.40;;;;;;9178713;19;20007;-62
2023/03/04 09:53:48;;;;;;;5.45;1.70;;;8.10;76.40;;;;;;9178404;19;20017;-63
2023/03/04 09:57:01;;;;;;;2.92;1.25;;;8.10;76.50;;;;;;9177456;19;20010;-62
2023/03/04 10:00:18;;;;;;;7.90;1.27;;;8.20;76.50;;;;;;9179487;19;20018;-62
2023/03/04 10:03:27;;;;;;;3.65;0.88;;;8.20;76.60;;;;;;9177411;19;20014;-62
2023/03/04 10:06:32;;;;;;;7.90;1.30;;;8.20;76.60;;;;;;9176518;19;20022;-62
2023/03/04 10:09:46;;;;;;;5.88;1.58;;;8.20;76.60;;;;;;9174266;19;20010;-62
2023/03/04 10:12:56;;;;;;;9.05;1.63;;;8.30;76.90;;;;;;9177358;19;20018;-62
2023/03/04 10:16:05;;;;;;;6.32;1.60;;;8.30;76.90;;;;;;9174792;19;20361;-62
2023/03/04 10:19:38;;;;;;;6.60;1.20;;;8.30;76.90;;;;;;9174774;19;20480;-63
2023/03/04 10:22:45;;;;;;;;;;;8.40;77.10;;;;;;9178863;19;20336;-62
2023/03/04 10:25:53;;;;;;;2.50;1.20;;;8.50;76.80;;;;;;9173667;19;19986;-62
2023/03/04 10:29:05;;;;;;;5.03;0.82;;;8.50;76.60;;;;;;9178673;19;20018;-62
2023/03/04 10:32:13;;;;;;;7.32;1.00;;;8.60;76.70;;;;;;9177115;19;20661;-62
2023/03/04 10:35:21;;;;;;;4.57;1.30;;;8.60;76.70;;;;;;9178729;19;20376;-62
2023/03/04 10:38:25;;;;;;;9.93;2.75;;;8.60;76.60;;;;;;9177105;19;20022;-62
2023/03/04 10:41:32;;;;;;;4.43;1.10;;;8.60;76.50;;;;;;9178959;19;20021;-63
2023/03/04 10:44:52;;;;;;;3.38;0.90;;;8.70;76.60;;;;;;9178048;19;20019;-63
2023/03/04 10:47:58;;;;;;;9.85;1.52;;;8.70;76.50;;;;;;9174543;19;20585;-63
2023/03/04 10:51:18;;;;;;;12.63;1.45;;;8.70;76.50;;;;;;9176918;19;20021;-62
2023/03/04 10:54:32;;;;;;;14.20;2.20;;;8.70;76.50;;;;;;9178267;19;20029;-63
2023/03/04 10:57:38;;;;;;;12.98;1.80;;;8.70;76.40;;;;;;9175624;19;20010;-63
2023/03/04 11:01:00;;;;;;;13.70;2.28;;;8.60;76.40;;;;;;9178413;19;20037;-62
2023/03/04 11:04:18;;;;;;;14.18;2.22;;;8.70;76.40;;;;;;9178084;19;20735;-62
2023/03/04 11:07:27;;;;;;;20.23;2.50;;;8.60;76.30;;;;;;9176871;19;21039;-63
2023/03/04 11:10:33;;;;;;;10.13;1.95;;;8.60;76.30;;;;;;9177533;19;20092;-63
2023/03/04 11:13:39;;;;;;;11.30;2.03;;;8.70;76.40;;;;;;9176646;19;20022;-63
2023/03/04 11:16:54;;;;;;;14.90;2.63;;;8.70;76.30;;;;;;9170120;19;20487;-62
2023/03/04 11:20:10;;;;;;;9.93;1.50;;;8.70;76.20;;;;;;9176569;19;20025;-62
2023/03/04 11:23:18;;;;;;;13.35;2.00;;;8.70;76.20;;;;;;9177674;19;20014;-62
2023/03/04 11:26:30;;;;;;;15.48;2.40;;;8.70;76.10;;;;;;9176992;19;20475;-63
2023/03/04 11:29:39;;;;;;;12.65;2.75;;;8.70;76.00;;;;;;9176479;19;20486;-62
2023/03/04 11:32:50;;;;;;;17.83;3.03;;;8.70;75.90;;;;;;9168880;19;20029;-63
2023/03/04 11:36:17;;;;;;;13.02;3.38;;;8.70;75.90;;;;;;9175362;19;20723;-63
2023/03/04 11:39:31;;;;;;;15.93;4.05;;;8.70;75.90;;;;;;9175479;19;20105;-62
2023/03/04 11:42:41;;;;;;;17.05;2.33;;;8.70;75.80;;;;;;9175312;19;20550;-63
2023/03/04 11:46:12;;;;;;;12.98;3.25;;;8.60;75.70;;;;;;9177100;19;20025;-63
2023/03/04 11:49:35;;;;;;;16.73;2.75;;;8.60;75.70;;;;;;9182983;19;20018;-63
2023/03/04 11:53:01;;;;;;;16.10;2.85;;;8.60;75.70;;;;;;9180947;19;20021;-63
2023/03/04 11:56:20;;;;;;;15.73;1.85;;;8.60;75.70;;;;;;9180575;19;20022;-63
2023/03/04 11:59:45;;;;;;;15.15;1.90;;;8.60;75.70;;;;;;9183420;19;20006;-63
2023/03/04 12:03:16;;;;;;;10.30;2.10;;;8.60;75.80;;;;;;9183353;19;20677;-63
2023/03/04 12:06:36;;;;;;;15.90;2.07;;;8.60;75.80;;;;;;9183306;19;20497;-63
2023/03/04 12:09:57;;;;;;;16.90;2.33;;;8.60;75.80;;;;;;9178878;19;20088;-63
2023/03/04 12:13:25;;;;;;;17.15;2.35;;;8.60;75.80;;;;;;9182429;19;20372;-63
2023/03/04 12:16:44;;;;;;;17.80;2.35;;;8.60;75.80;;;;;;9178416;19;20337;-63
2023/03/04 12:20:05;;;;;;;17.20;2.25;;;8.60;75.70;;;;;;9182637;19;20022;-63
2023/03/04 12:23:28;;;;;;;12.23;2.13;;;8.70;75.80;;;;;;9182606;19;20047;-63
2023/03/04 12:26:40;;;;;;;16.95;2.20;;;8.70;75.80;;;;;;9180306;19;20515;-63
2023/03/04 12:29:50;;;;;;;18.92;3.17;;;8.70;75.70;;;;;;9178818;19;20015;-63
2023/03/04 12:33:04;;;;;;;5.88;1.17;;;8.70;75.70;;;;;;9179959;19;20014;-63
2023/03/04 12:36:18;;;;;;;12.75;2.22;;;8.80;75.60;;;;;;9176332;19;20033;-63
2023/03/04 12:39:34;;;;;;;12.23;2.38;;;8.80;75.60;;;;;;9164240;19;20503;-63
2023/03/04 12:42:45;;;;;;;6.70;1.50;;;8.80;75.60;;;;;;9173211;19;20026;-63
2023/03/04 12:46:01;;;;;;;11.55;2.00;;;8.80;75.50;;;;;;9173265;19;20018;-63
2023/03/04 12:49:36;;;;;;;14.68;1.75;;;8.80;75.50;;;;;;9175737;19;20066;-63
2023/03/04 12:52:49;;;;;;;11.00;1.70;;;8.80;75.40;;;;;;9177052;19;20010;-63
2023/03/04 12:55:58;;;;;;;9.93;1.70;;;8.80;75.50;;;;;;9178642;19;20789;-63
2023/03/04 12:59:04;;;;;;;13.32;1.45;;;8.90;75.50;;;;;;9178291;19;20479;-63
2023/03/04 13:02:37;;;;;;;7.32;1.55;;;8.90;75.40;;;;;;9179712;19;20014;-63
2023/03/04 13:05:56;;;;;;;6.00;1.10;;;8.90;75.40;;;;;;9178611;19;20020;-63
2023/03/04 13:09:06;;;;;;;4.72;1.30;;;9.00;75.30;;;;;;9177390;19;20046;-63
2023/03/04 13:12:19;;;;;;;8.13;2.08;;;9.10;75.30;;;;;;9176781;19;20018;-63
2023/03/04 13:15:31;;;;;;;11.60;1.73;;;9.10;75.20;;;;;;9177436;19;20014;-63
2023/03/04 13:18:38;;;;;;;10.48;1.58;;;9.10;75.10;;;;;;9170725;19;20054;-64
2023/03/04 13:21:53;;;;;;;10.77;1.40;;;9.10;75.10;;;;;;9177500;19;20416;-63
2023/03/04 13:25:00;;;;;;;8.68;1.77;;;9.10;75.00;;;;;;9177268;19;20014;-63
2023/03/04 13:28:25;;;;;;;7.95;1.60;;;9.10;74.90;;;;;;9176392;19;20022;-63
2023/03/04 13:31:32;;;;;;;6.43;0.85;;;9.10;74.80;;;;;;9176047;19;20017;-63
2023/03/04 13:34:45;;;;;;;7.88;1.10;;;9.20;74.90;;;;;;9177989;19;20467;-63
2023/03/04 13:37:59;;;;;;;6.57;1.02;;;9.20;74.80;;;;;;9174305;19;20106;-63
2023/03/04 13:41:15;;;;;;;11.70;2.55;;;9.20;74.70;;;;;;9179786;19;20007;-63
2023/03/04 13:45:05;;;;;;;13.18;2.42;;;9.20;74.60;;;;;;9179702;19;20017;-63
2023/03/04 13:48:27;;;;;;;20.70;2.05;;;9.20;74.50;;;;;;9176972;19;20015;-63
2023/03/04 13:51:36;;;;;;;13.68;2.78;;;9.20;74.40;;;;;;9177847;19;20356;-63
2023/03/04 13:54:40;;;;;;;9.13;2.00;;;9.20;74.50;;;;;;9179725;19;20465;-63
2023/03/04 13:57:50;;;;;;;23.35;2.60;;;9.20;74.40;;;;;;9176926;19;20018;-63
2023/03/04 14:00:56;;;;;;;17.73;2.45;;;9.20;74.30;;;;;;9179314;19;20494;-63
2023/03/04 14:04:17;;;;;;;14.85;2.22;;;9.10;74.30;;;;;;9179224;19;20011;-62
2023/03/04 14:07:26;;;;;;;11.75;1.85;;;9.10;74.20;;;;;;9175601;19;20022;-63
2023/03/04 14:10:32;;;;;;;18.77;3.22;;;9.10;74.30;;;;;;9177921;19;20010;-62
2023/03/04 14:13:36;;;;;;;;;;;9.10;74.20;;;;;;9180473;19;20013;-63
2023/03/04 14:16:49;;;;;;;18.83;2.53;;;9.10;74.20;;;;;;9169051;19;20469;-63
2023/03/04 14:19:55;;;;;;;9.77;2.08;;;9.10;74.20;;;;;;9174947;19;20015;-63
2023/03/04 14:23:03;;;;;;;19.13;2.67;;;9.10;74.10;;;;;;9175544;19;20011;-64
2023/03/04 14:26:10;;;;;;;17.50;1.95;;;9.10;74.10;;;;;;9175533;19;20089;-63
2023/03/04 14:29:28;;;;;;;17.98;2.95;;;9.00;74.00;;;;;;9176046;19;20113;-63
2023/03/04 14:32:32;;;;;;;23.45;3.50;;;9.10;74.00;;;;;;9173183;19;20011;-63
2023/03/04 14:35:46;;;;;;;16.77;3.80;;;9.00;74.60;;;;;;9173583;19;20011;-64
2023/03/04 14:38:54;;;;;;;16.33;2.95;;;9.00;74.50;;;;;;9170619;19;20379;-63
2023/03/04 14:42:05;;;;;;;13.82;3.53;;;9.00;74.00;;;;;;9174411;19;20372;-63
2023/03/04 14:45:13;;;;;;;12.68;2.33;;;8.90;73.90;;;;;;9174964;19;20108;-64
2023/03/04 14:48:22;;;;;;;16.73;2.60;;;8.90;73.90;;;;;;9174227;19;20022;-63
2023/03/04 14:51:40;;;;;;;17.88;1.75;;;8.90;73.90;;;;;;9174800;19;20078;-63
2023/03/04 14:55:02;;;;;;;19.27;2.40;;;8.90;73.80;;;;;;9173973;19;20007;-63
2023/03/04 14:58:10;;;;;;;13.15;2.10;;;8.80;73.80;;;;;;9160245;19;20070;-63
2023/03/04 15:01:20;;;;;;;21.15;2.65;;;8.80;73.80;;;;;;9164318;19;20482;-63
2023/03/04 15:04:24;;;;;;;8.10;2.13;;;8.80;73.70;;;;;;9164334;19;20026;-62
2023/03/04 15:07:37;;;;;;;11.98;2.25;;;8.70;73.70;;;;;;9164739;19;20014;-66
2023/03/04 15:10:41;;;;;;;14.52;2.60;;;8.70;73.50;;;;;;9163863;19;20026;-64
2023/03/04 15:13:52;;;;;;;14.38;2.45;;;8.70;73.60;;;;;;9168737;19;20026;-62
2023/03/04 15:16:57;;;;;;;16.55;2.40;;;8.60;73.50;;;;;;9160839;19;20015;-62
2023/03/04 15:20:22;;;;;;;22.15;3.13;;;8.60;73.50;;;;;;9178292;19;20017;-63
2023/03/04 15:23:29;;;;;;;16.15;3.38;;;8.60;73.40;;;;;;9183450;19;20018;-64
2023/03/04 15:26:40;;;;;;;15.85;2.55;;;8.60;73.50;;;;;;9182190;19;20018;-63
2023/03/04 15:29:45;;;;;;;10.70;2.30;;;8.60;73.50;;;;;;9178181;19;20055;-64
2023/03/04 15:32:51;;;;;;;17.08;3.08;;;8.60;73.40;;;;;;9183165;19;20021;-63
2023/03/04 15:35:57;;;;;;;16.98;2.53;;;8.50;73.40;;;;;;9184485;19;20029;-62
2023/03/04 15:39:05;;;;;;;19.27;2.75;;;8.50;73.30;;;;;;9183221;19;20021;-63
2023/03/04 15:42:13;;;;;;;7.38;1.75;;;8.60;73.40;;;;;;9186421;19;20098;-63
2023/03/04 15:45:23;;;;;;;12.77;2.03;;;8.50;73.30;;;;;;9185771;19;20021;-63
2023/03/04 15:48:27;;;;;;;17.17;2.60;;;8.50;73.20;;;;;;9184170;19;20019;-63
2023/03/04 15:51:33;;;;;;;12.75;1.65;;;8.50;73.10;;;;;;9182777;19;20014;-63
2023/03/04 15:54:39;;;;;;;16.98;2.28;;;8.50;73.10;;;;;;9184745;19;20014;-63
2023/03/04 15:57:47;;;;;;;16.65;2.95;;;8.50;73.10;;;;;;9183645;19;20490;-63
2023/03/04 16:00:51;;;;;;;10.63;2.17;;;8.40;72.90;;;;;;9185136;19;20025;-63
2023/03/04 16:03:57;;;;;;;11.82;3.10;;;8.40;72.90;;;;;;9182287;19;20014;-64
2023/03/04 16:07:02;;;;;;;16.65;2.55;;;8.40;72.90;;;;;;9184027;19;20010;-63
2023/03/04 16:10:18;;;;;;;17.30;3.15;;;8.40;72.90;;;;;;9183926;19;20015;-63
2023/03/04 16:13:23;;;;;;;;;;;8.40;72.90;;;;;;9186004;19;20539;-62
2023/03/04 16:16:30;;;;;;;11.07;3.30;;;8.30;72.90;;;;;;9180272;19;19930;-63
2023/03/04 16:19:34;;;;;;;12.32;4.03;;;8.30;73.50;;;;;;9184186;19;20644;-63
2023/03/04 16:22:49;;;;;;;9.57;2.22;;;8.30;72.90;;;;;;9185404;19;20025;-64
2023/03/04 16:25:57;;;;;;;11.27;1.80;;;8.30;72.90;;;;;;9180556;19;20022;-63
2023/03/04 16:29:03;;;;;;;11.70;1.90;;;8.30;72.90;;;;;;9182236;19;20018;-62
2023/03/04 16:32:07;;;;;;;;;;;8.20;72.80;;;;;;9173650;19;20015;-63